sensor_id;sensor_type;location;lat;lon;timestamp;P1;durP1;ratioP1;P2;durP2;ratioP2
21213;SDS011;10764;50.850;2.904;2023-04-01T00:01:19;3.83;;;1.37;;
21213;SDS011;10764;50.850;2.904;2023-04-01T00:03:46;4.38;;;1.50;;
21213;SDS011;10764;50.850;2.904;2023-04-01T00:06:14;4.35;;;1.27;;
21213;SDS011;10764;50.850;2.904;2023-04-01T00:08:42;5.47;;;1.60;;
21213;SDS011;10764;50.850;2.904;2023-04-01T00:11:10;4.35;;;1.40;;
21213;SDS011;10764;50.850;2.904;2023-04-01T00:13:37;4.22;;;1.45;;
21213;SDS011;10764;50.850;2.904;2023-04-01T00:16:04;3.93;;;1.20;;
21213;SDS011;10764;50.850;2.904;2023-04-01T00:18:46;3.72;;;1.40;;
21213;SDS011;10764;50.850;2.904;2023-04-01T00:21:14;3.72;;;1.40;;
21213;SDS011;10764;50.850;2.904;2023-04-01T00:23:42;4.55;;;1.58;;
21213;SDS011;10764;50.850;2.904;2023-04-01T00:26:09;3.50;;;1.30;;
21213;SDS011;10764;50.850;2.904;2023-04-01T00:28:38;4.10;;;1.35;;
21213;SDS011;10764;50.850;2.904;2023-04-01T00:31:06;3.83;;;1.15;;
21213;SDS011;10764;50.850;2.904;2023-04-01T00:33:34;4.23;;;1.40;;
21213;SDS011;10764;50.850;2.904;2023-04-01T00:36:11;4.03;;;1.60;;
21213;SDS011;10764;50.850;2.904;2023-04-01T00:38:38;5.07;;;1.50;;
21213;SDS011;10764;50.850;2.904;2023-04-01T00:41:07;4.43;;;1.48;;
21213;SDS011;10764;50.850;2.904;2023-04-01T00:43:37;4.38;;;1.50;;
21213;SDS011;10764;50.850;2.904;2023-04-01T00:46:06;4.38;;;1.48;;
21213;SDS011;10764;50.850;2.904;2023-04-01T00:48:34;3.55;;;1.38;;
21213;SDS011;10764;50.850;2.904;2023-04-01T00:51:04;4.05;;;1.20;;
21213;SDS011;10764;50.850;2.904;2023-04-01T00:53:33;3.80;;;1.40;;
21213;SDS011;10764;50.850;2.904;2023-04-01T00:56:09;3.08;;;1.38;;
21213;SDS011;10764;50.850;2.904;2023-04-01T00:58:41;4.17;;;1.50;;
21213;SDS011;10764;50.850;2.904;2023-04-01T01:01:12;2.40;;;1.08;;
21213;SDS011;10764;50.850;2.904;2023-04-01T01:03:39;3.92;;;1.50;;
21213;SDS011;10764;50.850;2.904;2023-04-01T01:09:06;3.55;;;1.30;;
21213;SDS011;10764;50.850;2.904;2023-04-01T01:11:39;3.45;;;1.27;;
21213;SDS011;10764;50.850;2.904;2023-04-01T01:16:52;3.43;;;1.33;;
21213;SDS011;10764;50.850;2.904;2023-04-01T01:31:00;3.05;;;1.30;;
21213;SDS011;10764;50.850;2.904;2023-04-01T01:36:42;3.15;;;1.30;;
21213;SDS011;10764;50.850;2.904;2023-04-01T01:39:12;4.00;;;1.20;;
21213;SDS011;10764;50.850;2.904;2023-04-01T01:41:41;3.87;;;1.10;;
21213;SDS011;10764;50.850;2.904;2023-04-01T01:44:11;2.75;;;1.20;;
21213;SDS011;10764;50.850;2.904;2023-04-01T01:46:40;2.88;;;1.15;;
21213;SDS011;10764;50.850;2.904;2023-04-01T01:49:10;3.92;;;1.10;;
21213;SDS011;10764;50.850;2.904;2023-04-01T01:51:39;2.97;;;1.25;;
21213;SDS011;10764;50.850;2.904;2023-04-01T01:54:15;3.58;;;1.20;;
21213;SDS011;10764;50.850;2.904;2023-04-01T01:56:45;3.95;;;1.20;;
21213;SDS011;10764;50.850;2.904;2023-04-01T01:59:15;3.40;;;1.10;;
21213;SDS011;10764;50.850;2.904;2023-04-01T02:01:48;3.93;;;1.30;;
21213;SDS011;10764;50.850;2.904;2023-04-01T02:04:18;3.85;;;1.40;;
21213;SDS011;10764;50.850;2.904;2023-04-01T02:06:48;2.72;;;1.10;;
21213;SDS011;10764;50.850;2.904;2023-04-01T02:09:22;4.57;;;1.30;;
21213;SDS011;10764;50.850;2.904;2023-04-01T02:11:51;11.75;;;1.60;;
21213;SDS011;10764;50.850;2.904;2023-04-01T02:14:22;3.30;;;1.33;;
21213;SDS011;10764;50.850;2.904;2023-04-01T02:16:59;4.45;;;1.30;;
21213;SDS011;10764;50.850;2.904;2023-04-01T02:19:38;3.42;;;1.20;;
21213;SDS011;10764;50.850;2.904;2023-04-01T02:22:11;3.03;;;1.17;;
21213;SDS011;10764;50.850;2.904;2023-04-01T02:24:42;3.03;;;1.23;;
21213;SDS011;10764;50.850;2.904;2023-04-01T02:27:12;4.78;;;1.25;;
21213;SDS011;10764;50.850;2.904;2023-04-01T02:29:39;2.97;;;1.30;;
21213;SDS011;10764;50.850;2.904;2023-04-01T02:32:06;3.05;;;1.25;;
21213;SDS011;10764;50.850;2.904;2023-04-01T02:34:34;4.13;;;1.17;;
21213;SDS011;10764;50.850;2.904;2023-04-01T02:37:02;3.27;;;1.07;;
21213;SDS011;10764;50.850;2.904;2023-04-01T02:39:29;3.78;;;1.25;;
21213;SDS011;10764;50.850;2.904;2023-04-01T02:41:56;3.67;;;1.10;;
21213;SDS011;10764;50.850;2.904;2023-04-01T02:44:23;3.45;;;1.15;;
21213;SDS011;10764;50.850;2.904;2023-04-01T02:46:50;2.15;;;1.02;;
21213;SDS011;10764;50.850;2.904;2023-04-01T02:49:17;4.47;;;1.27;;
21213;SDS011;10764;50.850;2.904;2023-04-01T02:51:44;3.55;;;1.23;;
21213;SDS011;10764;50.850;2.904;2023-04-01T02:54:11;3.08;;;1.30;;
21213;SDS011;10764;50.850;2.904;2023-04-01T02:56:38;2.65;;;1.10;;
21213;SDS011;10764;50.850;2.904;2023-04-01T02:59:05;2.55;;;1.13;;
21213;SDS011;10764;50.850;2.904;2023-04-01T03:01:32;3.03;;;1.40;;
21213;SDS011;10764;50.850;2.904;2023-04-01T03:03:59;2.67;;;1.00;;
21213;SDS011;10764;50.850;2.904;2023-04-01T03:06:25;3.58;;;1.10;;
21213;SDS011;10764;50.850;2.904;2023-04-01T03:08:53;3.70;;;1.20;;
21213;SDS011;10764;50.850;2.904;2023-04-01T03:11:20;2.40;;;1.30;;
21213;SDS011;10764;50.850;2.904;2023-04-01T03:13:48;4.38;;;1.20;;
21213;SDS011;10764;50.850;2.904;2023-04-01T03:16:16;3.55;;;1.17;;
21213;SDS011;10764;50.850;2.904;2023-04-01T03:18:43;2.87;;;1.10;;
21213;SDS011;10764;50.850;2.904;2023-04-01T03:21:18;2.88;;;1.13;;
21213;SDS011;10764;50.850;2.904;2023-04-01T03:23:48;2.75;;;1.33;;
21213;SDS011;10764;50.850;2.904;2023-04-01T03:26:16;3.88;;;1.40;;
21213;SDS011;10764;50.850;2.904;2023-04-01T03:28:44;3.30;;;1.33;;
21213;SDS011;10764;50.850;2.904;2023-04-01T03:31:14;2.22;;;1.08;;
21213;SDS011;10764;50.850;2.904;2023-04-01T03:33:48;1.90;;;0.98;;
21213;SDS011;10764;50.850;2.904;2023-04-01T03:36:21;2.55;;;1.10;;
21213;SDS011;10764;50.850;2.904;2023-04-01T03:38:48;3.20;;;1.25;;
21213;SDS011;10764;50.850;2.904;2023-04-01T03:41:22;2.55;;;1.38;;
21213;SDS011;10764;50.850;2.904;2023-04-01T03:43:49;2.05;;;1.02;;
21213;SDS011;10764;50.850;2.904;2023-04-01T03:46:17;3.30;;;1.23;;
21213;SDS011;10764;50.850;2.904;2023-04-01T03:48:45;2.17;;;1.00;;
21213;SDS011;10764;50.850;2.904;2023-04-01T03:51:12;3.20;;;1.10;;
21213;SDS011;10764;50.850;2.904;2023-04-01T03:53:40;3.80;;;1.30;;
21213;SDS011;10764;50.850;2.904;2023-04-01T03:56:08;3.22;;;1.20;;
21213;SDS011;10764;50.850;2.904;2023-04-01T03:58:35;4.07;;;1.20;;
21213;SDS011;10764;50.850;2.904;2023-04-01T04:01:12;2.22;;;1.00;;
21213;SDS011;10764;50.850;2.904;2023-04-01T04:03:40;2.72;;;1.00;;
21213;SDS011;10764;50.850;2.904;2023-04-01T04:06:12;1.60;;;1.00;;
21213;SDS011;10764;50.850;2.904;2023-04-01T04:08:40;2.78;;;1.00;;
21213;SDS011;10764;50.850;2.904;2023-04-01T04:11:07;2.70;;;1.20;;
21213;SDS011;10764;50.850;2.904;2023-04-01T04:13:37;2.63;;;1.20;;
21213;SDS011;10764;50.850;2.904;2023-04-01T04:18:37;2.57;;;1.00;;
21213;SDS011;10764;50.850;2.904;2023-04-01T04:21:04;2.92;;;0.98;;
21213;SDS011;10764;50.850;2.904;2023-04-01T04:23:31;6.13;;;1.07;;
21213;SDS011;10764;50.850;2.904;2023-04-01T04:26:01;1.77;;;0.90;;
21213;SDS011;10764;50.850;2.904;2023-04-01T04:28:30;2.00;;;0.85;;
21213;SDS011;10764;50.850;2.904;2023-04-01T04:30:57;2.83;;;1.23;;
21213;SDS011;10764;50.850;2.904;2023-04-01T04:33:25;2.03;;;1.02;;
21213;SDS011;10764;50.850;2.904;2023-04-01T04:35:54;1.48;;;0.90;;
21213;SDS011;10764;50.850;2.904;2023-04-01T04:38:22;3.20;;;0.90;;
21213;SDS011;10764;50.850;2.904;2023-04-01T04:40:50;1.83;;;1.00;;
21213;SDS011;10764;50.850;2.904;2023-04-01T04:43:17;2.17;;;0.90;;
21213;SDS011;10764;50.850;2.904;2023-04-01T04:45:45;2.47;;;1.00;;
21213;SDS011;10764;50.850;2.904;2023-04-01T04:48:14;3.10;;;1.13;;
21213;SDS011;10764;50.850;2.904;2023-04-01T04:50:46;2.25;;;0.80;;
21213;SDS011;10764;50.850;2.904;2023-04-01T04:53:17;1.60;;;0.60;;
21213;SDS011;10764;50.850;2.904;2023-04-01T04:55:46;2.88;;;1.00;;
21213;SDS011;10764;50.850;2.904;2023-04-01T04:58:26;1.60;;;0.90;;
21213;SDS011;10764;50.850;2.904;2023-04-01T05:00:53;2.35;;;0.88;;
21213;SDS011;10764;50.850;2.904;2023-04-01T05:03:25;2.83;;;0.80;;
21213;SDS011;10764;50.850;2.904;2023-04-01T05:05:53;3.00;;;0.80;;
21213;SDS011;10764;50.850;2.904;2023-04-01T05:08:20;1.95;;;0.70;;
21213;SDS011;10764;50.850;2.904;2023-04-01T05:10:47;1.58;;;0.75;;
21213;SDS011;10764;50.850;2.904;2023-04-01T05:13:13;2.20;;;0.70;;
21213;SDS011;10764;50.850;2.904;2023-04-01T05:15:43;2.40;;;0.70;;
21213;SDS011;10764;50.850;2.904;2023-04-01T05:18:09;2.20;;;0.80;;
21213;SDS011;10764;50.850;2.904;2023-04-01T05:20:36;2.22;;;0.80;;
21213;SDS011;10764;50.850;2.904;2023-04-01T05:23:03;1.80;;;0.83;;
21213;SDS011;10764;50.850;2.904;2023-04-01T05:25:30;2.55;;;0.80;;
21213;SDS011;10764;50.850;2.904;2023-04-01T05:27:58;2.30;;;0.90;;
21213;SDS011;10764;50.850;2.904;2023-04-01T05:30:26;3.10;;;0.85;;
21213;SDS011;10764;50.850;2.904;2023-04-01T05:33:00;1.60;;;0.70;;
21213;SDS011;10764;50.850;2.904;2023-04-01T05:35:28;2.80;;;0.80;;
21213;SDS011;10764;50.850;2.904;2023-04-01T05:37:55;4.53;;;0.60;;
21213;SDS011;10764;50.850;2.904;2023-04-01T05:40:22;1.60;;;0.80;;
21213;SDS011;10764;50.850;2.904;2023-04-01T05:42:49;2.15;;;0.60;;
21213;SDS011;10764;50.850;2.904;2023-04-01T05:45:16;1.75;;;0.90;;
21213;SDS011;10764;50.850;2.904;2023-04-01T05:48:06;4.03;;;0.65;;
21213;SDS011;10764;50.850;2.904;2023-04-01T05:50:39;1.98;;;0.80;;
21213;SDS011;10764;50.850;2.904;2023-04-01T05:53:07;1.52;;;0.63;;
21213;SDS011;10764;50.850;2.904;2023-04-01T05:55:35;2.28;;;0.82;;
21213;SDS011;10764;50.850;2.904;2023-04-01T05:58:03;3.20;;;0.90;;
21213;SDS011;10764;50.850;2.904;2023-04-01T06:00:30;2.30;;;0.70;;
21213;SDS011;10764;50.850;2.904;2023-04-01T06:02:59;3.38;;;0.70;;
21213;SDS011;10764;50.850;2.904;2023-04-01T06:05:30;1.63;;;0.70;;
21213;SDS011;10764;50.850;2.904;2023-04-01T06:08:12;1.63;;;0.65;;
21213;SDS011;10764;50.850;2.904;2023-04-01T06:16:01;3.13;;;0.80;;
21213;SDS011;10764;50.850;2.904;2023-04-01T06:21:14;1.77;;;0.75;;
21213;SDS011;10764;50.850;2.904;2023-04-01T06:27:05;3.43;;;0.90;;
21213;SDS011;10764;50.850;2.904;2023-04-01T06:32:38;3.55;;;0.80;;
21213;SDS011;10764;50.850;2.904;2023-04-01T06:47:34;4.97;;;1.00;;
21213;SDS011;10764;50.850;2.904;2023-04-01T06:50:30;4.57;;;1.20;;
21213;SDS011;10764;50.850;2.904;2023-04-01T06:56:29;4.68;;;0.82;;
21213;SDS011;10764;50.850;2.904;2023-04-01T06:59:10;5.47;;;1.20;;
21213;SDS011;10764;50.850;2.904;2023-04-01T07:01:42;6.15;;;0.95;;
21213;SDS011;10764;50.850;2.904;2023-04-01T07:04:26;4.45;;;0.82;;
21213;SDS011;10764;50.850;2.904;2023-04-01T07:07:01;4.57;;;1.00;;
21213;SDS011;10764;50.850;2.904;2023-04-01T07:10:14;3.38;;;0.80;;
21213;SDS011;10764;50.850;2.904;2023-04-01T07:18:50;2.95;;;0.75;;
21213;SDS011;10764;50.850;2.904;2023-04-01T07:24:01;3.03;;;0.80;;
21213;SDS011;10764;50.850;2.904;2023-04-01T07:26:38;1.80;;;0.60;;
21213;SDS011;10764;50.850;2.904;2023-04-01T07:29:13;1.67;;;0.50;;
21213;SDS011;10764;50.850;2.904;2023-04-01T07:37:31;4.00;;;0.80;;
21213;SDS011;10764;50.850;2.904;2023-04-01T07:43:05;1.77;;;0.65;;
21213;SDS011;10764;50.850;2.904;2023-04-01T07:46:03;2.35;;;0.52;;
21213;SDS011;10764;50.850;2.904;2023-04-01T07:48:54;2.15;;;0.63;;
21213;SDS011;10764;50.850;2.904;2023-04-01T07:51:40;1.98;;;0.60;;
21213;SDS011;10764;50.850;2.904;2023-04-01T08:00:34;1.98;;;0.63;;
21213;SDS011;10764;50.850;2.904;2023-04-01T08:05:37;1.50;;;0.50;;
21213;SDS011;10764;50.850;2.904;2023-04-01T08:08:28;1.38;;;0.47;;
21213;SDS011;10764;50.850;2.904;2023-04-01T08:11:48;1.58;;;0.70;;
21213;SDS011;10764;50.850;2.904;2023-04-01T08:23:27;2.90;;;0.50;;
21213;SDS011;10764;50.850;2.904;2023-04-01T08:31:18;1.98;;;0.50;;
21213;SDS011;10764;50.850;2.904;2023-04-01T08:34:03;0.70;;;0.38;;
21213;SDS011;10764;50.850;2.904;2023-04-01T08:36:36;0.90;;;0.40;;
21213;SDS011;10764;50.850;2.904;2023-04-01T08:39:15;2.05;;;0.40;;
21213;SDS011;10764;50.850;2.904;2023-04-01T08:56:20;0.98;;;0.40;;
21213;SDS011;10764;50.850;2.904;2023-04-01T09:16:49;0.70;;;0.30;;
21213;SDS011;10764;50.850;2.904;2023-04-01T09:22:25;1.27;;;0.20;;
21213;SDS011;10764;50.850;2.904;2023-04-01T09:25:22;0.90;;;0.28;;
21213;SDS011;10764;50.850;2.904;2023-04-01T09:28:49;1.30;;;0.30;;
21213;SDS011;10764;50.850;2.904;2023-04-01T09:34:34;0.60;;;0.20;;
21213;SDS011;10764;50.850;2.904;2023-04-01T09:37:17;1.02;;;0.30;;
21213;SDS011;10764;50.850;2.904;2023-04-01T09:40:14;1.17;;;0.20;;
21213;SDS011;10764;50.850;2.904;2023-04-01T09:43:02;0.70;;;0.20;;
21213;SDS011;10764;50.850;2.904;2023-04-01T09:45:58;1.20;;;0.30;;
21213;SDS011;10764;50.850;2.904;2023-04-01T09:48:37;0.65;;;0.30;;
21213;SDS011;10764;50.850;2.904;2023-04-01T09:54:22;1.30;;;0.30;;
21213;SDS011;10764;50.850;2.904;2023-04-01T09:57:11;0.52;;;0.30;;
21213;SDS011;10764;50.850;2.904;2023-04-01T10:20:04;1.17;;;0.20;;
21213;SDS011;10764;50.850;2.904;2023-04-01T10:25:53;0.82;;;0.30;;
21213;SDS011;10764;50.850;2.904;2023-04-01T10:37:12;0.87;;;0.20;;
21213;SDS011;10764;50.850;2.904;2023-04-01T10:43:13;0.40;;;0.10;;
21213;SDS011;10764;50.850;2.904;2023-04-01T10:55:49;0.55;;;0.20;;
21213;SDS011;10764;50.850;2.904;2023-04-01T11:01:45;0.90;;;0.20;;
21213;SDS011;10764;50.850;2.904;2023-04-01T11:14:24;0.45;;;0.20;;
21213;SDS011;10764;50.850;2.904;2023-04-01T11:26:10;0.70;;;0.35;;
21213;SDS011;10764;50.850;2.904;2023-04-01T11:38:38;0.60;;;0.20;;
21213;SDS011;10764;50.850;2.904;2023-04-01T11:42:06;0.60;;;0.20;;
21213;SDS011;10764;50.850;2.904;2023-04-01T11:45:17;0.60;;;0.20;;
21213;SDS011;10764;50.850;2.904;2023-04-01T11:51:08;0.60;;;0.13;;
21213;SDS011;10764;50.850;2.904;2023-04-01T11:56:39;0.20;;;0.10;;
21213;SDS011;10764;50.850;2.904;2023-04-01T12:10:18;0.50;;;0.20;;
21213;SDS011;10764;50.850;2.904;2023-04-01T12:12:52;0.38;;;0.17;;
21213;SDS011;10764;50.850;2.904;2023-04-01T12:43:09;0.68;;;0.30;;
21213;SDS011;10764;50.850;2.904;2023-04-01T12:45:48;0.80;;;0.20;;
21213;SDS011;10764;50.850;2.904;2023-04-01T12:48:50;0.55;;;0.20;;
21213;SDS011;10764;50.850;2.904;2023-04-01T13:08:51;0.28;;;0.10;;
21213;SDS011;10764;50.850;2.904;2023-04-01T13:14:15;0.63;;;0.10;;
21213;SDS011;10764;50.850;2.904;2023-04-01T13:17:41;0.65;;;0.20;;
21213;SDS011;10764;50.850;2.904;2023-04-01T13:28:15;0.80;;;0.20;;
21213;SDS011;10764;50.850;2.904;2023-04-01T13:41:50;0.28;;;0.10;;
21213;SDS011;10764;50.850;2.904;2023-04-01T13:44:46;0.88;;;0.20;;
21213;SDS011;10764;50.850;2.904;2023-04-01T13:53:11;0.52;;;0.15;;
21213;SDS011;10764;50.850;2.904;2023-04-01T14:15:41;0.60;;;0.20;;
21213;SDS011;10764;50.850;2.904;2023-04-01T14:23:47;0.50;;;0.10;;
21213;SDS011;10764;50.850;2.904;2023-04-01T14:31:53;0.30;;;0.10;;
21213;SDS011;10764;50.850;2.904;2023-04-01T14:34:47;0.22;;;0.00;;
21213;SDS011;10764;50.850;2.904;2023-04-01T14:40:16;0.30;;;0.10;;
21213;SDS011;10764;50.850;2.904;2023-04-01T14:48:50;0.47;;;0.10;;
21213;SDS011;10764;50.850;2.904;2023-04-01T14:51:28;0.60;;;0.20;;
21213;SDS011;10764;50.850;2.904;2023-04-01T14:54:49;0.40;;;0.10;;
21213;SDS011;10764;50.850;2.904;2023-04-01T14:57:13;0.20;;;0.10;;
21213;SDS011;10764;50.850;2.904;2023-04-01T14:59:47;0.50;;;0.10;;
21213;SDS011;10764;50.850;2.904;2023-04-01T15:02:33;0.65;;;0.20;;
21213;SDS011;10764;50.850;2.904;2023-04-01T15:05:15;0.80;;;0.20;;
21213;SDS011;10764;50.850;2.904;2023-04-01T15:27:19;0.40;;;0.10;;
21213;SDS011;10764;50.850;2.904;2023-04-01T15:30:22;0.40;;;0.10;;
21213;SDS011;10764;50.850;2.904;2023-04-01T15:38:19;0.32;;;0.10;;
21213;SDS011;10764;50.850;2.904;2023-04-01T15:43:46;1.10;;;0.10;;
21213;SDS011;10764;50.850;2.904;2023-04-01T15:49:03;0.70;;;0.20;;
21213;SDS011;10764;50.850;2.904;2023-04-01T15:51:53;0.65;;;0.10;;
21213;SDS011;10764;50.850;2.904;2023-04-01T15:57:47;0.90;;;0.10;;
21213;SDS011;10764;50.850;2.904;2023-04-01T16:14:36;0.70;;;0.10;;
21213;SDS011;10764;50.850;2.904;2023-04-01T16:25:40;1.23;;;0.17;;
21213;SDS011;10764;50.850;2.904;2023-04-01T16:33:44;0.60;;;0.20;;
21213;SDS011;10764;50.850;2.904;2023-04-01T16:36:37;0.70;;;0.20;;
21213;SDS011;10764;50.850;2.904;2023-04-01T16:39:33;0.73;;;0.22;;
21213;SDS011;10764;50.850;2.904;2023-04-01T16:42:22;1.00;;;0.20;;
21213;SDS011;10764;50.850;2.904;2023-04-01T16:47:55;0.63;;;0.10;;
21213;SDS011;10764;50.850;2.904;2023-04-01T16:50:39;1.25;;;0.20;;
21213;SDS011;10764;50.850;2.904;2023-04-01T16:53:25;1.15;;;0.20;;
21213;SDS011;10764;50.850;2.904;2023-04-01T16:56:07;1.13;;;0.20;;
21213;SDS011;10764;50.850;2.904;2023-04-01T17:04:23;0.85;;;0.20;;
21213;SDS011;10764;50.850;2.904;2023-04-01T17:09:49;0.30;;;0.10;;
21213;SDS011;10764;50.850;2.904;2023-04-01T17:12:53;1.33;;;0.20;;
21213;SDS011;10764;50.850;2.904;2023-04-01T17:16:01;0.80;;;0.30;;
21213;SDS011;10764;50.850;2.904;2023-04-01T17:21:45;0.73;;;0.20;;
21213;SDS011;10764;50.850;2.904;2023-04-01T17:27:34;0.60;;;0.30;;
21213;SDS011;10764;50.850;2.904;2023-04-01T17:30:17;0.68;;;0.22;;
21213;SDS011;10764;50.850;2.904;2023-04-01T17:47:28;0.60;;;0.20;;
21213;SDS011;10764;50.850;2.904;2023-04-01T17:52:46;1.00;;;0.30;;
21213;SDS011;10764;50.850;2.904;2023-04-01T17:58:30;1.08;;;0.20;;
21213;SDS011;10764;50.850;2.904;2023-04-01T18:06:44;1.15;;;0.30;;
21213;SDS011;10764;50.850;2.904;2023-04-01T18:12:44;0.90;;;0.20;;
21213;SDS011;10764;50.850;2.904;2023-04-01T18:15:37;0.85;;;0.20;;
21213;SDS011;10764;50.850;2.904;2023-04-01T18:20:54;0.82;;;0.20;;
21213;SDS011;10764;50.850;2.904;2023-04-01T18:23:29;1.10;;;0.30;;
21213;SDS011;10764;50.850;2.904;2023-04-01T18:26:22;0.80;;;0.20;;
21213;SDS011;10764;50.850;2.904;2023-04-01T18:29:12;0.60;;;0.22;;
21213;SDS011;10764;50.850;2.904;2023-04-01T18:31:49;0.77;;;0.20;;
21213;SDS011;10764;50.850;2.904;2023-04-01T18:34:41;0.90;;;0.20;;
21213;SDS011;10764;50.850;2.904;2023-04-01T18:38:20;0.90;;;0.20;;
21213;SDS011;10764;50.850;2.904;2023-04-01T18:40:35;1.35;;;0.30;;
21213;SDS011;10764;50.850;2.904;2023-04-01T18:43:38;0.57;;;0.20;;
21213;SDS011;10764;50.850;2.904;2023-04-01T18:46:25;1.20;;;0.30;;
21213;SDS011;10764;50.850;2.904;2023-04-01T18:49:21;1.00;;;0.40;;
21213;SDS011;10764;50.850;2.904;2023-04-01T18:52:07;1.20;;;0.35;;
21213;SDS011;10764;50.850;2.904;2023-04-01T18:57:47;0.70;;;0.30;;
21213;SDS011;10764;50.850;2.904;2023-04-01T19:00:21;0.77;;;0.30;;
21213;SDS011;10764;50.850;2.904;2023-04-01T19:05:33;1.35;;;0.30;;
21213;SDS011;10764;50.850;2.904;2023-04-01T19:14:05;1.10;;;0.40;;
21213;SDS011;10764;50.850;2.904;2023-04-01T19:22:43;1.07;;;0.30;;
21213;SDS011;10764;50.850;2.904;2023-04-01T19:26:17;0.93;;;0.40;;
21213;SDS011;10764;50.850;2.904;2023-04-01T19:36:29;0.93;;;0.30;;
21213;SDS011;10764;50.850;2.904;2023-04-01T19:52:42;1.10;;;0.40;;
21213;SDS011;10764;50.850;2.904;2023-04-01T19:58:11;1.45;;;0.30;;
21213;SDS011;10764;50.850;2.904;2023-04-01T20:00:44;1.27;;;0.40;;
21213;SDS011;10764;50.850;2.904;2023-04-01T20:03:38;1.07;;;0.40;;
21213;SDS011;10764;50.850;2.904;2023-04-01T20:08:50;0.60;;;0.30;;
21213;SDS011;10764;50.850;2.904;2023-04-01T20:24:56;1.05;;;0.40;;
21213;SDS011;10764;50.850;2.904;2023-04-01T20:27:31;1.45;;;0.40;;
21213;SDS011;10764;50.850;2.904;2023-04-01T20:41:39;1.38;;;0.50;;
21213;SDS011;10764;50.850;2.904;2023-04-01T20:47:22;1.40;;;0.47;;
21213;SDS011;10764;50.850;2.904;2023-04-01T20:52:40;1.58;;;0.50;;
21213;SDS011;10764;50.850;2.904;2023-04-01T20:58:00;1.90;;;0.60;;
21213;SDS011;10764;50.850;2.904;2023-04-01T21:03:29;2.55;;;0.60;;
21213;SDS011;10764;50.850;2.904;2023-04-01T21:06:20;2.22;;;0.70;;
21213;SDS011;10764;50.850;2.904;2023-04-01T21:09:02;2.35;;;0.60;;
21213;SDS011;10764;50.850;2.904;2023-04-01T21:19:55;2.63;;;0.90;;
21213;SDS011;10764;50.850;2.904;2023-04-01T21:22:49;1.58;;;0.70;;
21213;SDS011;10764;50.850;2.904;2023-04-01T21:25:45;3.00;;;0.82;;
21213;SDS011;10764;50.850;2.904;2023-04-01T21:28:33;2.25;;;0.80;;
21213;SDS011;10764;50.850;2.904;2023-04-01T21:31:22;3.05;;;0.80;;
21213;SDS011;10764;50.850;2.904;2023-04-01T21:40:11;3.90;;;1.00;;
21213;SDS011;10764;50.850;2.904;2023-04-01T21:43:05;2.60;;;1.10;;
21213;SDS011;10764;50.850;2.904;2023-04-01T21:48:51;4.27;;;1.10;;
21213;SDS011;10764;50.850;2.904;2023-04-01T21:55:17;4.18;;;1.23;;
21213;SDS011;10764;50.850;2.904;2023-04-01T22:03:35;3.33;;;1.00;;
21213;SDS011;10764;50.850;2.904;2023-04-01T22:06:20;5.50;;;1.00;;
21213;SDS011;10764;50.850;2.904;2023-04-01T22:14:07;4.23;;;1.00;;
21213;SDS011;10764;50.850;2.904;2023-04-01T22:16:44;3.10;;;0.80;;
21213;SDS011;10764;50.850;2.904;2023-04-01T22:19:24;2.55;;;1.00;;
21213;SDS011;10764;50.850;2.904;2023-04-01T22:25:20;3.35;;;1.10;;
21213;SDS011;10764;50.850;2.904;2023-04-01T22:28:05;3.67;;;1.15;;
21213;SDS011;10764;50.850;2.904;2023-04-01T22:30:51;3.75;;;1.30;;
21213;SDS011;10764;50.850;2.904;2023-04-01T22:33:34;2.95;;;1.05;;
21213;SDS011;10764;50.850;2.904;2023-04-01T22:36:27;3.78;;;1.15;;
21213;SDS011;10764;50.850;2.904;2023-04-01T22:39:01;6.55;;;1.30;;
21213;SDS011;10764;50.850;2.904;2023-04-01T22:41:50;2.83;;;0.90;;
21213;SDS011;10764;50.850;2.904;2023-04-01T22:47:49;3.20;;;1.23;;
21213;SDS011;10764;50.850;2.904;2023-04-01T22:50:43;4.57;;;1.10;;
21213;SDS011;10764;50.850;2.904;2023-04-01T22:53:19;3.20;;;1.10;;
21213;SDS011;10764;50.850;2.904;2023-04-01T22:56:18;3.67;;;1.20;;
21213;SDS011;10764;50.850;2.904;2023-04-01T22:58:51;5.22;;;1.15;;
21213;SDS011;10764;50.850;2.904;2023-04-01T23:01:29;3.63;;;1.30;;
21213;SDS011;10764;50.850;2.904;2023-04-01T23:04:01;4.03;;;1.20;;
21213;SDS011;10764;50.850;2.904;2023-04-01T23:06:32;3.67;;;1.20;;
21213;SDS011;10764;50.850;2.904;2023-04-01T23:09:11;2.47;;;1.03;;
21213;SDS011;10764;50.850;2.904;2023-04-01T23:11:57;3.90;;;1.30;;
21213;SDS011;10764;50.850;2.904;2023-04-01T23:14:41;4.23;;;1.30;;
21213;SDS011;10764;50.850;2.904;2023-04-01T23:17:19;3.72;;;1.10;;
21213;SDS011;10764;50.850;2.904;2023-04-01T23:22:44;4.03;;;1.27;;
21213;SDS011;10764;50.850;2.904;2023-04-01T23:31:24;3.40;;;1.35;;
21213;SDS011;10764;50.850;2.904;2023-04-01T23:33:58;3.38;;;1.27;;
21213;SDS011;10764;50.850;2.904;2023-04-01T23:36:50;3.15;;;1.20;;
21213;SDS011;10764;50.850;2.904;2023-04-01T23:42:03;2.95;;;0.93;;
21213;SDS011;10764;50.850;2.904;2023-04-01T23:44:33;4.25;;;1.23;;
21213;SDS011;10764;50.850;2.904;2023-04-01T23:47:01;3.93;;;1.20;;
21213;SDS011;10764;50.850;2.904;2023-04-01T23:49:33;4.22;;;1.25;;
21213;SDS011;10764;50.850;2.904;2023-04-01T23:52:22;2.90;;;1.17;;
21213;SDS011;10764;50.850;2.904;2023-04-01T23:57:30;4.30;;;1.30;;
